sensor_id;sensor_type;location;lat;lon;timestamp;P1;durP1;ratioP1;P2;durP2;ratioP2
8060;SDS011;4073;42.626;25.386;2022-10-22T00:01:07;50.73;;;32.83;;
8060;SDS011;4073;42.626;25.386;2022-10-22T00:03:32;53.97;;;36.40;;
8060;SDS011;4073;42.626;25.386;2022-10-22T00:05:58;52.80;;;36.37;;
8060;SDS011;4073;42.626;25.386;2022-10-22T00:08:23;56.03;;;38.30;;
8060;SDS011;4073;42.626;25.386;2022-10-22T00:10:49;52.30;;;34.53;;
8060;SDS011;4073;42.626;25.386;2022-10-22T00:13:15;52.30;;;39.17;;
8060;SDS011;4073;42.626;25.386;2022-10-22T00:15:41;57.93;;;41.20;;
8060;SDS011;4073;42.626;25.386;2022-10-22T00:18:06;95.87;;;60.50;;
8060;SDS011;4073;42.626;25.386;2022-10-22T00:20:31;97.93;;;63.63;;
8060;SDS011;4073;42.626;25.386;2022-10-22T00:22:57;156.77;;;79.77;;
8060;SDS011;4073;42.626;25.386;2022-10-22T00:25:22;97.67;;;59.23;;
8060;SDS011;4073;42.626;25.386;2022-10-22T00:27:48;79.10;;;52.90;;
8060;SDS011;4073;42.626;25.386;2022-10-22T00:30:13;76.03;;;51.50;;
8060;SDS011;4073;42.626;25.386;2022-10-22T00:32:39;70.77;;;47.07;;
8060;SDS011;4073;42.626;25.386;2022-10-22T00:35:05;65.17;;;41.27;;
8060;SDS011;4073;42.626;25.386;2022-10-22T00:37:30;69.60;;;47.07;;
8060;SDS011;4073;42.626;25.386;2022-10-22T00:39:56;75.23;;;54.30;;
8060;SDS011;4073;42.626;25.386;2022-10-22T00:42:22;84.53;;;54.87;;
8060;SDS011;4073;42.626;25.386;2022-10-22T00:47:27;74.20;;;50.57;;
8060;SDS011;4073;42.626;25.386;2022-10-22T00:50:23;77.10;;;50.13;;
8060;SDS011;4073;42.626;25.386;2022-10-22T00:52:49;73.50;;;48.57;;
8060;SDS011;4073;42.626;25.386;2022-10-22T00:55:15;71.47;;;46.30;;
8060;SDS011;4073;42.626;25.386;2022-10-22T00:57:42;66.77;;;42.03;;
8060;SDS011;4073;42.626;25.386;2022-10-22T01:00:08;44.80;;;32.80;;
8060;SDS011;4073;42.626;25.386;2022-10-22T01:02:34;48.80;;;30.83;;
8060;SDS011;4073;42.626;25.386;2022-10-22T01:05:00;48.27;;;30.67;;
8060;SDS011;4073;42.626;25.386;2022-10-22T01:07:26;29.00;;;20.53;;
8060;SDS011;4073;42.626;25.386;2022-10-22T01:13:00;18.13;;;13.53;;
8060;SDS011;4073;42.626;25.386;2022-10-22T01:24:08;84.17;;;48.90;;
8060;SDS011;4073;42.626;25.386;2022-10-22T01:29:31;148.27;;;91.03;;
8060;SDS011;4073;42.626;25.386;2022-10-22T01:32:04;170.23;;;97.23;;
8060;SDS011;4073;42.626;25.386;2022-10-22T01:34:35;161.13;;;93.03;;
8060;SDS011;4073;42.626;25.386;2022-10-22T01:37:04;166.07;;;94.00;;
8060;SDS011;4073;42.626;25.386;2022-10-22T01:39:30;168.47;;;101.93;;
8060;SDS011;4073;42.626;25.386;2022-10-22T01:41:59;168.40;;;101.07;;
8060;SDS011;4073;42.626;25.386;2022-10-22T01:44:28;180.17;;;101.70;;
8060;SDS011;4073;42.626;25.386;2022-10-22T01:58:33;194.03;;;115.37;;
8060;SDS011;4073;42.626;25.386;2022-10-22T02:01:21;197.70;;;117.60;;
8060;SDS011;4073;42.626;25.386;2022-10-22T02:04:01;195.50;;;112.60;;
8060;SDS011;4073;42.626;25.386;2022-10-22T02:06:27;183.57;;;108.07;;
8060;SDS011;4073;42.626;25.386;2022-10-22T02:08:56;187.13;;;108.40;;
8060;SDS011;4073;42.626;25.386;2022-10-22T02:11:24;180.23;;;110.20;;
8060;SDS011;4073;42.626;25.386;2022-10-22T02:13:52;194.40;;;110.67;;
8060;SDS011;4073;42.626;25.386;2022-10-22T02:16:22;174.67;;;105.57;;
8060;SDS011;4073;42.626;25.386;2022-10-22T02:18:53;185.80;;;106.87;;
8060;SDS011;4073;42.626;25.386;2022-10-22T02:21:20;172.97;;;107.60;;
8060;SDS011;4073;42.626;25.386;2022-10-22T02:23:46;167.20;;;96.40;;
8060;SDS011;4073;42.626;25.386;2022-10-22T02:26:18;146.80;;;84.77;;
8060;SDS011;4073;42.626;25.386;2022-10-22T02:31:31;122.93;;;70.83;;
8060;SDS011;4073;42.626;25.386;2022-10-22T02:34:02;115.17;;;67.83;;
8060;SDS011;4073;42.626;25.386;2022-10-22T02:36:32;109.00;;;65.67;;
8060;SDS011;4073;42.626;25.386;2022-10-22T02:38:59;104.73;;;65.77;;
8060;SDS011;4073;42.626;25.386;2022-10-22T02:41:25;110.20;;;63.97;;
8060;SDS011;4073;42.626;25.386;2022-10-22T02:43:53;89.30;;;55.83;;
8060;SDS011;4073;42.626;25.386;2022-10-22T02:46:19;97.27;;;56.37;;
8060;SDS011;4073;42.626;25.386;2022-10-22T02:48:45;79.40;;;51.07;;
8060;SDS011;4073;42.626;25.386;2022-10-22T02:51:10;73.80;;;48.53;;
8060;SDS011;4073;42.626;25.386;2022-10-22T02:53:36;74.80;;;45.83;;
8060;SDS011;4073;42.626;25.386;2022-10-22T02:56:02;70.27;;;44.80;;
8060;SDS011;4073;42.626;25.386;2022-10-22T02:58:27;79.63;;;45.97;;
8060;SDS011;4073;42.626;25.386;2022-10-22T03:00:53;71.90;;;44.00;;
8060;SDS011;4073;42.626;25.386;2022-10-22T03:03:18;67.40;;;43.20;;
8060;SDS011;4073;42.626;25.386;2022-10-22T03:05:44;67.00;;;41.57;;
8060;SDS011;4073;42.626;25.386;2022-10-22T03:08:09;65.63;;;41.63;;
8060;SDS011;4073;42.626;25.386;2022-10-22T03:10:34;58.40;;;39.03;;
8060;SDS011;4073;42.626;25.386;2022-10-22T03:13:00;57.93;;;38.97;;
8060;SDS011;4073;42.626;25.386;2022-10-22T03:15:25;51.83;;;34.00;;
8060;SDS011;4073;42.626;25.386;2022-10-22T03:17:51;47.07;;;31.97;;
8060;SDS011;4073;42.626;25.386;2022-10-22T03:20:16;51.57;;;31.30;;
8060;SDS011;4073;42.626;25.386;2022-10-22T03:22:42;46.73;;;31.23;;
8060;SDS011;4073;42.626;25.386;2022-10-22T03:25:12;51.03;;;31.80;;
8060;SDS011;4073;42.626;25.386;2022-10-22T03:27:43;44.50;;;29.27;;
8060;SDS011;4073;42.626;25.386;2022-10-22T03:30:11;43.57;;;30.60;;
8060;SDS011;4073;42.626;25.386;2022-10-22T03:32:37;44.33;;;32.30;;
8060;SDS011;4073;42.626;25.386;2022-10-22T03:35:03;55.83;;;31.43;;
8060;SDS011;4073;42.626;25.386;2022-10-22T03:37:29;50.43;;;32.33;;
8060;SDS011;4073;42.626;25.386;2022-10-22T03:39:56;52.50;;;33.90;;
8060;SDS011;4073;42.626;25.386;2022-10-22T03:42:22;55.47;;;33.87;;
8060;SDS011;4073;42.626;25.386;2022-10-22T03:44:48;50.07;;;34.87;;
8060;SDS011;4073;42.626;25.386;2022-10-22T03:47:13;54.87;;;33.63;;
8060;SDS011;4073;42.626;25.386;2022-10-22T03:49:39;54.03;;;35.20;;
8060;SDS011;4073;42.626;25.386;2022-10-22T03:52:13;57.00;;;36.23;;
8060;SDS011;4073;42.626;25.386;2022-10-22T03:54:39;67.13;;;40.13;;
8060;SDS011;4073;42.626;25.386;2022-10-22T03:57:06;77.50;;;45.80;;
8060;SDS011;4073;42.626;25.386;2022-10-22T03:59:35;77.43;;;46.30;;
8060;SDS011;4073;42.626;25.386;2022-10-22T04:02:02;72.03;;;47.63;;
8060;SDS011;4073;42.626;25.386;2022-10-22T04:04:28;70.33;;;41.73;;
8060;SDS011;4073;42.626;25.386;2022-10-22T04:06:54;63.60;;;39.43;;
8060;SDS011;4073;42.626;25.386;2022-10-22T04:09:20;56.50;;;37.53;;
8060;SDS011;4073;42.626;25.386;2022-10-22T04:11:45;62.37;;;40.33;;
8060;SDS011;4073;42.626;25.386;2022-10-22T04:14:11;56.20;;;36.67;;
8060;SDS011;4073;42.626;25.386;2022-10-22T04:16:37;47.17;;;33.40;;
8060;SDS011;4073;42.626;25.386;2022-10-22T04:19:04;49.87;;;31.83;;
8060;SDS011;4073;42.626;25.386;2022-10-22T04:21:29;47.87;;;29.90;;
8060;SDS011;4073;42.626;25.386;2022-10-22T04:23:55;51.07;;;31.27;;
8060;SDS011;4073;42.626;25.386;2022-10-22T04:26:21;49.00;;;31.73;;
8060;SDS011;4073;42.626;25.386;2022-10-22T04:28:47;46.10;;;32.33;;
8060;SDS011;4073;42.626;25.386;2022-10-22T04:31:15;40.90;;;29.73;;
8060;SDS011;4073;42.626;25.386;2022-10-22T04:33:43;39.70;;;26.47;;
8060;SDS011;4073;42.626;25.386;2022-10-22T04:36:12;34.90;;;24.47;;
8060;SDS011;4073;42.626;25.386;2022-10-22T04:38:40;31.33;;;23.57;;
8060;SDS011;4073;42.626;25.386;2022-10-22T04:41:14;35.07;;;25.27;;
8060;SDS011;4073;42.626;25.386;2022-10-22T04:43:44;32.47;;;23.73;;
8060;SDS011;4073;42.626;25.386;2022-10-22T04:46:11;38.60;;;25.27;;
8060;SDS011;4073;42.626;25.386;2022-10-22T04:48:38;39.57;;;24.73;;
8060;SDS011;4073;42.626;25.386;2022-10-22T04:51:04;43.80;;;26.40;;
8060;SDS011;4073;42.626;25.386;2022-10-22T04:53:31;43.07;;;28.03;;
8060;SDS011;4073;42.626;25.386;2022-10-22T04:56:10;63.33;;;35.83;;
8060;SDS011;4073;42.626;25.386;2022-10-22T04:58:40;63.07;;;39.23;;
8060;SDS011;4073;42.626;25.386;2022-10-22T05:03:36;53.53;;;36.67;;
8060;SDS011;4073;42.626;25.386;2022-10-22T05:06:02;71.13;;;39.70;;
8060;SDS011;4073;42.626;25.386;2022-10-22T05:08:27;62.83;;;37.60;;
8060;SDS011;4073;42.626;25.386;2022-10-22T05:10:53;86.23;;;47.23;;
8060;SDS011;4073;42.626;25.386;2022-10-22T05:13:18;102.23;;;61.93;;
8060;SDS011;4073;42.626;25.386;2022-10-22T05:15:43;119.07;;;65.07;;
8060;SDS011;4073;42.626;25.386;2022-10-22T05:18:09;102.77;;;60.43;;
8060;SDS011;4073;42.626;25.386;2022-10-22T05:20:37;107.00;;;61.53;;
8060;SDS011;4073;42.626;25.386;2022-10-22T05:23:04;98.63;;;56.43;;
8060;SDS011;4073;42.626;25.386;2022-10-22T05:25:29;93.70;;;49.50;;
8060;SDS011;4073;42.626;25.386;2022-10-22T05:27:55;60.17;;;41.17;;
8060;SDS011;4073;42.626;25.386;2022-10-22T05:30:20;61.83;;;37.60;;
8060;SDS011;4073;42.626;25.386;2022-10-22T05:32:46;55.00;;;34.10;;
8060;SDS011;4073;42.626;25.386;2022-10-22T05:35:11;56.83;;;36.53;;
8060;SDS011;4073;42.626;25.386;2022-10-22T05:37:36;70.97;;;41.70;;
8060;SDS011;4073;42.626;25.386;2022-10-22T05:40:02;84.80;;;49.77;;
8060;SDS011;4073;42.626;25.386;2022-10-22T05:42:32;107.43;;;59.10;;
8060;SDS011;4073;42.626;25.386;2022-10-22T05:44:57;135.00;;;78.97;;
8060;SDS011;4073;42.626;25.386;2022-10-22T05:47:23;144.93;;;83.57;;
8060;SDS011;4073;42.626;25.386;2022-10-22T05:49:48;143.13;;;86.40;;
8060;SDS011;4073;42.626;25.386;2022-10-22T05:52:14;151.43;;;82.93;;
8060;SDS011;4073;42.626;25.386;2022-10-22T05:54:39;122.77;;;77.90;;
8060;SDS011;4073;42.626;25.386;2022-10-22T05:57:05;126.77;;;77.73;;
8060;SDS011;4073;42.626;25.386;2022-10-22T05:59:31;116.63;;;73.97;;
8060;SDS011;4073;42.626;25.386;2022-10-22T06:01:56;127.63;;;79.27;;
8060;SDS011;4073;42.626;25.386;2022-10-22T06:04:22;128.47;;;78.90;;
8060;SDS011;4073;42.626;25.386;2022-10-22T06:06:50;118.30;;;76.50;;
8060;SDS011;4073;42.626;25.386;2022-10-22T06:09:19;121.33;;;75.50;;
8060;SDS011;4073;42.626;25.386;2022-10-22T06:11:49;128.87;;;78.10;;
8060;SDS011;4073;42.626;25.386;2022-10-22T06:14:15;125.67;;;75.93;;
8060;SDS011;4073;42.626;25.386;2022-10-22T06:16:42;132.00;;;78.83;;
8060;SDS011;4073;42.626;25.386;2022-10-22T06:19:08;122.93;;;79.13;;
8060;SDS011;4073;42.626;25.386;2022-10-22T06:21:36;114.77;;;71.13;;
8060;SDS011;4073;42.626;25.386;2022-10-22T06:24:02;111.30;;;71.00;;
8060;SDS011;4073;42.626;25.386;2022-10-22T06:26:28;192.60;;;112.97;;
8060;SDS011;4073;42.626;25.386;2022-10-22T06:28:54;100.37;;;59.63;;
8060;SDS011;4073;42.626;25.386;2022-10-22T06:31:20;84.53;;;55.73;;
8060;SDS011;4073;42.626;25.386;2022-10-22T06:33:46;73.03;;;52.30;;
8060;SDS011;4073;42.626;25.386;2022-10-22T06:36:13;74.77;;;48.23;;
8060;SDS011;4073;42.626;25.386;2022-10-22T06:38:40;74.57;;;45.30;;
8060;SDS011;4073;42.626;25.386;2022-10-22T06:41:07;79.73;;;52.20;;
8060;SDS011;4073;42.626;25.386;2022-10-22T06:43:34;65.33;;;43.27;;
8060;SDS011;4073;42.626;25.386;2022-10-22T06:46:00;51.30;;;36.43;;
8060;SDS011;4073;42.626;25.386;2022-10-22T06:48:26;69.00;;;45.30;;
8060;SDS011;4073;42.626;25.386;2022-10-22T06:50:52;79.87;;;51.83;;
8060;SDS011;4073;42.626;25.386;2022-10-22T06:53:17;85.20;;;56.93;;
8060;SDS011;4073;42.626;25.386;2022-10-22T06:55:43;88.13;;;58.90;;
8060;SDS011;4073;42.626;25.386;2022-10-22T06:58:08;85.17;;;60.53;;
8060;SDS011;4073;42.626;25.386;2022-10-22T07:00:33;77.00;;;52.40;;
8060;SDS011;4073;42.626;25.386;2022-10-22T07:02:59;70.00;;;48.10;;
8060;SDS011;4073;42.626;25.386;2022-10-22T07:05:24;61.93;;;44.57;;
8060;SDS011;4073;42.626;25.386;2022-10-22T07:07:50;50.57;;;33.60;;
8060;SDS011;4073;42.626;25.386;2022-10-22T07:10:15;37.83;;;28.97;;
8060;SDS011;4073;42.626;25.386;2022-10-22T07:12:41;31.63;;;24.00;;
8060;SDS011;4073;42.626;25.386;2022-10-22T07:15:06;37.73;;;28.43;;
8060;SDS011;4073;42.626;25.386;2022-10-22T07:17:32;31.43;;;25.00;;
8060;SDS011;4073;42.626;25.386;2022-10-22T07:19:58;50.23;;;34.13;;
8060;SDS011;4073;42.626;25.386;2022-10-22T07:22:23;40.20;;;32.03;;
8060;SDS011;4073;42.626;25.386;2022-10-22T07:24:48;44.67;;;32.53;;
8060;SDS011;4073;42.626;25.386;2022-10-22T07:27:14;49.87;;;34.07;;
8060;SDS011;4073;42.626;25.386;2022-10-22T07:29:39;42.93;;;31.47;;
8060;SDS011;4073;42.626;25.386;2022-10-22T07:32:05;43.13;;;31.60;;
8060;SDS011;4073;42.626;25.386;2022-10-22T07:34:30;42.63;;;30.17;;
8060;SDS011;4073;42.626;25.386;2022-10-22T07:36:56;47.10;;;32.57;;
8060;SDS011;4073;42.626;25.386;2022-10-22T07:39:21;44.90;;;31.00;;
8060;SDS011;4073;42.626;25.386;2022-10-22T07:41:49;48.20;;;30.03;;
8060;SDS011;4073;42.626;25.386;2022-10-22T07:44:15;46.37;;;30.73;;
8060;SDS011;4073;42.626;25.386;2022-10-22T07:46:40;47.63;;;31.73;;
8060;SDS011;4073;42.626;25.386;2022-10-22T07:49:06;37.77;;;29.60;;
8060;SDS011;4073;42.626;25.386;2022-10-22T07:51:31;40.83;;;28.00;;
8060;SDS011;4073;42.626;25.386;2022-10-22T07:53:57;39.53;;;29.53;;
8060;SDS011;4073;42.626;25.386;2022-10-22T07:56:22;42.23;;;29.13;;
8060;SDS011;4073;42.626;25.386;2022-10-22T07:58:48;33.87;;;27.17;;
8060;SDS011;4073;42.626;25.386;2022-10-22T08:01:13;36.60;;;27.27;;
8060;SDS011;4073;42.626;25.386;2022-10-22T08:03:39;32.20;;;24.60;;
8060;SDS011;4073;42.626;25.386;2022-10-22T08:06:05;29.73;;;23.70;;
8060;SDS011;4073;42.626;25.386;2022-10-22T08:08:30;30.17;;;22.67;;
8060;SDS011;4073;42.626;25.386;2022-10-22T08:10:58;31.13;;;22.37;;
8060;SDS011;4073;42.626;25.386;2022-10-22T08:13:25;28.80;;;23.20;;
8060;SDS011;4073;42.626;25.386;2022-10-22T08:15:51;31.00;;;23.40;;
8060;SDS011;4073;42.626;25.386;2022-10-22T08:18:17;30.03;;;21.70;;
8060;SDS011;4073;42.626;25.386;2022-10-22T08:20:42;26.90;;;19.50;;
8060;SDS011;4073;42.626;25.386;2022-10-22T08:23:08;20.93;;;17.73;;
8060;SDS011;4073;42.626;25.386;2022-10-22T08:25:33;27.27;;;20.43;;
8060;SDS011;4073;42.626;25.386;2022-10-22T08:27:59;27.63;;;19.70;;
8060;SDS011;4073;42.626;25.386;2022-10-22T08:30:24;22.57;;;17.90;;
8060;SDS011;4073;42.626;25.386;2022-10-22T08:32:53;23.00;;;18.10;;
8060;SDS011;4073;42.626;25.386;2022-10-22T08:35:19;22.50;;;17.00;;
8060;SDS011;4073;42.626;25.386;2022-10-22T08:37:45;23.37;;;18.20;;
8060;SDS011;4073;42.626;25.386;2022-10-22T08:40:13;23.83;;;17.97;;
8060;SDS011;4073;42.626;25.386;2022-10-22T08:43:00;25.83;;;18.23;;
8060;SDS011;4073;42.626;25.386;2022-10-22T08:46:31;24.70;;;19.27;;
8060;SDS011;4073;42.626;25.386;2022-10-22T08:48:55;24.13;;;18.50;;
8060;SDS011;4073;42.626;25.386;2022-10-22T08:51:23;29.43;;;20.90;;
8060;SDS011;4073;42.626;25.386;2022-10-22T08:56:48;30.23;;;22.03;;
8060;SDS011;4073;42.626;25.386;2022-10-22T08:59:27;27.13;;;19.37;;
8060;SDS011;4073;42.626;25.386;2022-10-22T09:02:16;24.53;;;20.33;;
8060;SDS011;4073;42.626;25.386;2022-10-22T09:07:57;32.17;;;20.50;;
8060;SDS011;4073;42.626;25.386;2022-10-22T09:10:27;29.53;;;20.43;;
8060;SDS011;4073;42.626;25.386;2022-10-22T09:12:58;28.97;;;20.00;;
8060;SDS011;4073;42.626;25.386;2022-10-22T09:15:23;32.13;;;20.17;;
8060;SDS011;4073;42.626;25.386;2022-10-22T09:20:15;35.60;;;19.40;;
8060;SDS011;4073;42.626;25.386;2022-10-22T09:25:27;26.20;;;16.83;;
8060;SDS011;4073;42.626;25.386;2022-10-22T09:27:59;19.80;;;17.10;;
8060;SDS011;4073;42.626;25.386;2022-10-22T09:30:26;29.80;;;17.70;;
8060;SDS011;4073;42.626;25.386;2022-10-22T09:35:51;19.83;;;14.87;;
8060;SDS011;4073;42.626;25.386;2022-10-22T09:38:32;20.10;;;14.47;;
8060;SDS011;4073;42.626;25.386;2022-10-22T09:41:03;22.83;;;15.80;;
8060;SDS011;4073;42.626;25.386;2022-10-22T09:43:29;17.67;;;14.70;;
8060;SDS011;4073;42.626;25.386;2022-10-22T09:45:56;18.30;;;14.87;;
8060;SDS011;4073;42.626;25.386;2022-10-22T09:48:27;28.33;;;14.23;;
8060;SDS011;4073;42.626;25.386;2022-10-22T09:51:04;15.60;;;13.37;;
8060;SDS011;4073;42.626;25.386;2022-10-22T09:53:36;16.43;;;12.80;;
8060;SDS011;4073;42.626;25.386;2022-10-22T09:56:07;23.67;;;11.47;;
8060;SDS011;4073;42.626;25.386;2022-10-22T09:58:51;10.73;;;9.23;;
8060;SDS011;4073;42.626;25.386;2022-10-22T10:01:18;10.77;;;7.70;;
8060;SDS011;4073;42.626;25.386;2022-10-22T10:03:46;12.43;;;7.10;;
8060;SDS011;4073;42.626;25.386;2022-10-22T10:06:16;10.03;;;6.63;;
8060;SDS011;4073;42.626;25.386;2022-10-22T10:08:46;8.50;;;7.30;;
8060;SDS011;4073;42.626;25.386;2022-10-22T10:11:26;10.80;;;7.33;;
8060;SDS011;4073;42.626;25.386;2022-10-22T10:14:07;9.47;;;6.53;;
8060;SDS011;4073;42.626;25.386;2022-10-22T10:16:59;14.93;;;7.13;;
8060;SDS011;4073;42.626;25.386;2022-10-22T10:25:13;5.47;;;4.97;;
8060;SDS011;4073;42.626;25.386;2022-10-22T10:28:25;5.73;;;5.03;;
8060;SDS011;4073;42.626;25.386;2022-10-22T10:30:30;6.20;;;5.43;;
8060;SDS011;4073;42.626;25.386;2022-10-22T10:49:32;6.40;;;4.67;;
8060;SDS011;4073;42.626;25.386;2022-10-22T10:54:56;6.33;;;4.80;;
8060;SDS011;4073;42.626;25.386;2022-10-22T11:00:30;9.97;;;5.03;;
8060;SDS011;4073;42.626;25.386;2022-10-22T11:03:01;5.70;;;5.03;;
8060;SDS011;4073;42.626;25.386;2022-10-22T11:05:39;5.37;;;4.80;;
8060;SDS011;4073;42.626;25.386;2022-10-22T11:11:25;9.30;;;4.77;;
8060;SDS011;4073;42.626;25.386;2022-10-22T11:16:54;5.23;;;4.73;;
8060;SDS011;4073;42.626;25.386;2022-10-22T11:19:29;5.90;;;5.30;;
8060;SDS011;4073;42.626;25.386;2022-10-22T11:22:36;8.07;;;5.03;;
8060;SDS011;4073;42.626;25.386;2022-10-22T11:25:24;6.03;;;4.70;;
8060;SDS011;4073;42.626;25.386;2022-10-22T11:27:56;8.43;;;5.47;;
8060;SDS011;4073;42.626;25.386;2022-10-22T11:30:29;8.13;;;5.30;;
8060;SDS011;4073;42.626;25.386;2022-10-22T11:33:00;7.67;;;4.33;;
8060;SDS011;4073;42.626;25.386;2022-10-22T11:35:36;5.33;;;4.83;;
8060;SDS011;4073;42.626;25.386;2022-10-22T11:38:06;8.97;;;5.30;;
8060;SDS011;4073;42.626;25.386;2022-10-22T11:40:36;11.37;;;5.10;;
8060;SDS011;4073;42.626;25.386;2022-10-22T11:43:04;10.60;;;4.97;;
8060;SDS011;4073;42.626;25.386;2022-10-22T11:45:35;5.23;;;4.73;;
8060;SDS011;4073;42.626;25.386;2022-10-22T11:58:27;6.13;;;4.97;;
8060;SDS011;4073;42.626;25.386;2022-10-22T12:08:40;7.07;;;5.37;;
8060;SDS011;4073;42.626;25.386;2022-10-22T12:16:26;8.53;;;5.63;;
8060;SDS011;4073;42.626;25.386;2022-10-22T12:19:05;7.43;;;6.10;;
8060;SDS011;4073;42.626;25.386;2022-10-22T12:21:38;6.57;;;5.77;;
8060;SDS011;4073;42.626;25.386;2022-10-22T12:24:06;7.90;;;5.73;;
8060;SDS011;4073;42.626;25.386;2022-10-22T12:26:37;6.87;;;5.57;;
8060;SDS011;4073;42.626;25.386;2022-10-22T12:29:08;8.80;;;6.00;;
8060;SDS011;4073;42.626;25.386;2022-10-22T12:31:36;11.43;;;6.10;;
8060;SDS011;4073;42.626;25.386;2022-10-22T12:34:03;8.43;;;5.47;;
8060;SDS011;4073;42.626;25.386;2022-10-22T12:36:30;8.10;;;6.07;;
8060;SDS011;4073;42.626;25.386;2022-10-22T12:39:08;6.87;;;5.60;;
8060;SDS011;4073;42.626;25.386;2022-10-22T12:41:44;10.23;;;5.53;;
8060;SDS011;4073;42.626;25.386;2022-10-22T12:44:12;8.47;;;5.77;;
8060;SDS011;4073;42.626;25.386;2022-10-22T12:46:39;7.10;;;6.30;;
8060;SDS011;4073;42.626;25.386;2022-10-22T12:49:11;7.60;;;5.60;;
8060;SDS011;4073;42.626;25.386;2022-10-22T12:51:41;8.83;;;6.30;;
8060;SDS011;4073;42.626;25.386;2022-10-22T12:54:29;9.57;;;5.93;;
8060;SDS011;4073;42.626;25.386;2022-10-22T12:56:54;8.43;;;5.83;;
8060;SDS011;4073;42.626;25.386;2022-10-22T12:59:23;7.23;;;6.47;;
8060;SDS011;4073;42.626;25.386;2022-10-22T13:01:54;10.47;;;6.33;;
8060;SDS011;4073;42.626;25.386;2022-10-22T13:12:04;11.50;;;6.63;;
8060;SDS011;4073;42.626;25.386;2022-10-22T13:14:32;9.87;;;6.53;;
8060;SDS011;4073;42.626;25.386;2022-10-22T13:20:03;9.60;;;6.80;;
8060;SDS011;4073;42.626;25.386;2022-10-22T13:24:57;13.23;;;6.30;;
8060;SDS011;4073;42.626;25.386;2022-10-22T13:27:43;9.37;;;6.20;;
8060;SDS011;4073;42.626;25.386;2022-10-22T13:30:16;11.67;;;6.23;;
8060;SDS011;4073;42.626;25.386;2022-10-22T13:32:48;7.30;;;6.40;;
8060;SDS011;4073;42.626;25.386;2022-10-22T13:35:25;7.70;;;6.43;;
8060;SDS011;4073;42.626;25.386;2022-10-22T13:37:56;9.33;;;7.13;;
8060;SDS011;4073;42.626;25.386;2022-10-22T13:40:21;7.50;;;6.03;;
8060;SDS011;4073;42.626;25.386;2022-10-22T13:42:47;9.90;;;6.80;;
8060;SDS011;4073;42.626;25.386;2022-10-22T13:45:12;7.93;;;6.17;;
8060;SDS011;4073;42.626;25.386;2022-10-22T13:47:38;9.70;;;7.30;;
8060;SDS011;4073;42.626;25.386;2022-10-22T13:50:12;8.97;;;7.20;;
8060;SDS011;4073;42.626;25.386;2022-10-22T13:52:41;8.27;;;6.20;;
8060;SDS011;4073;42.626;25.386;2022-10-22T13:55:13;10.57;;;6.20;;
8060;SDS011;4073;42.626;25.386;2022-10-22T13:57:49;9.83;;;6.23;;
8060;SDS011;4073;42.626;25.386;2022-10-22T14:00:16;11.37;;;6.23;;
8060;SDS011;4073;42.626;25.386;2022-10-22T14:02:48;8.50;;;6.97;;
8060;SDS011;4073;42.626;25.386;2022-10-22T14:05:16;6.20;;;5.60;;
8060;SDS011;4073;42.626;25.386;2022-10-22T14:07:42;10.77;;;6.30;;
8060;SDS011;4073;42.626;25.386;2022-10-22T14:10:29;12.40;;;6.70;;
8060;SDS011;4073;42.626;25.386;2022-10-22T14:12:54;8.17;;;7.33;;
8060;SDS011;4073;42.626;25.386;2022-10-22T14:15:21;8.80;;;6.67;;
8060;SDS011;4073;42.626;25.386;2022-10-22T14:17:54;8.17;;;7.13;;
8060;SDS011;4073;42.626;25.386;2022-10-22T14:20:22;9.60;;;7.10;;
8060;SDS011;4073;42.626;25.386;2022-10-22T14:22:50;11.90;;;7.53;;
8060;SDS011;4073;42.626;25.386;2022-10-22T14:25:17;6.80;;;6.20;;
8060;SDS011;4073;42.626;25.386;2022-10-22T14:27:45;13.47;;;6.80;;
8060;SDS011;4073;42.626;25.386;2022-10-22T14:30:18;6.70;;;5.80;;
8060;SDS011;4073;42.626;25.386;2022-10-22T14:32:45;8.80;;;6.57;;
8060;SDS011;4073;42.626;25.386;2022-10-22T14:35:13;11.57;;;8.03;;
8060;SDS011;4073;42.626;25.386;2022-10-22T14:37:44;10.13;;;6.50;;
8060;SDS011;4073;42.626;25.386;2022-10-22T14:40:11;8.97;;;7.13;;
8060;SDS011;4073;42.626;25.386;2022-10-22T14:42:39;11.97;;;8.87;;
8060;SDS011;4073;42.626;25.386;2022-10-22T14:45:11;9.63;;;7.43;;
8060;SDS011;4073;42.626;25.386;2022-10-22T14:47:40;11.70;;;6.47;;
8060;SDS011;4073;42.626;25.386;2022-10-22T14:50:06;16.17;;;8.17;;
8060;SDS011;4073;42.626;25.386;2022-10-22T14:52:32;19.63;;;7.97;;
8060;SDS011;4073;42.626;25.386;2022-10-22T14:54:58;10.33;;;7.60;;
8060;SDS011;4073;42.626;25.386;2022-10-22T14:57:24;11.43;;;7.97;;
8060;SDS011;4073;42.626;25.386;2022-10-22T14:59:49;11.27;;;9.97;;
8060;SDS011;4073;42.626;25.386;2022-10-22T15:02:18;14.37;;;8.53;;
8060;SDS011;4073;42.626;25.386;2022-10-22T15:04:45;15.33;;;8.80;;
8060;SDS011;4073;42.626;25.386;2022-10-22T15:07:11;19.90;;;9.03;;
8060;SDS011;4073;42.626;25.386;2022-10-22T15:09:36;15.07;;;9.63;;
8060;SDS011;4073;42.626;25.386;2022-10-22T15:12:02;14.67;;;9.27;;
8060;SDS011;4073;42.626;25.386;2022-10-22T15:14:27;16.00;;;10.70;;
8060;SDS011;4073;42.626;25.386;2022-10-22T15:16:53;16.13;;;11.00;;
8060;SDS011;4073;42.626;25.386;2022-10-22T15:19:18;28.87;;;11.97;;
8060;SDS011;4073;42.626;25.386;2022-10-22T15:21:44;22.63;;;10.80;;
8060;SDS011;4073;42.626;25.386;2022-10-22T15:24:09;34.87;;;12.70;;
8060;SDS011;4073;42.626;25.386;2022-10-22T15:26:34;39.87;;;14.70;;
8060;SDS011;4073;42.626;25.386;2022-10-22T15:29:01;47.23;;;16.30;;
8060;SDS011;4073;42.626;25.386;2022-10-22T15:34:30;38.50;;;14.83;;
8060;SDS011;4073;42.626;25.386;2022-10-22T15:36:57;28.83;;;15.67;;
8060;SDS011;4073;42.626;25.386;2022-10-22T15:39:25;34.73;;;19.37;;
8060;SDS011;4073;42.626;25.386;2022-10-22T15:41:51;26.03;;;17.77;;
8060;SDS011;4073;42.626;25.386;2022-10-22T15:44:27;15.00;;;12.40;;
8060;SDS011;4073;42.626;25.386;2022-10-22T15:46:55;14.67;;;10.57;;
8060;SDS011;4073;42.626;25.386;2022-10-22T15:49:25;17.03;;;10.40;;
8060;SDS011;4073;42.626;25.386;2022-10-22T15:51:52;13.70;;;10.07;;
8060;SDS011;4073;42.626;25.386;2022-10-22T15:54:20;15.20;;;11.03;;
8060;SDS011;4073;42.626;25.386;2022-10-22T15:56:50;14.63;;;9.83;;
8060;SDS011;4073;42.626;25.386;2022-10-22T15:59:16;21.37;;;14.60;;
8060;SDS011;4073;42.626;25.386;2022-10-22T16:01:42;34.13;;;19.47;;
8060;SDS011;4073;42.626;25.386;2022-10-22T16:04:07;39.67;;;26.10;;
8060;SDS011;4073;42.626;25.386;2022-10-22T16:06:35;37.53;;;24.90;;
8060;SDS011;4073;42.626;25.386;2022-10-22T16:09:06;49.53;;;31.73;;
8060;SDS011;4073;42.626;25.386;2022-10-22T16:11:34;42.10;;;31.37;;
8060;SDS011;4073;42.626;25.386;2022-10-22T16:14:00;29.27;;;22.53;;
8060;SDS011;4073;42.626;25.386;2022-10-22T16:16:46;17.67;;;12.23;;
8060;SDS011;4073;42.626;25.386;2022-10-22T16:19:13;18.97;;;14.37;;
8060;SDS011;4073;42.626;25.386;2022-10-22T16:21:40;15.00;;;12.10;;
8060;SDS011;4073;42.626;25.386;2022-10-22T16:24:07;17.90;;;12.47;;
8060;SDS011;4073;42.626;25.386;2022-10-22T16:26:34;14.67;;;12.60;;
8060;SDS011;4073;42.626;25.386;2022-10-22T16:28:59;10.43;;;9.33;;
8060;SDS011;4073;42.626;25.386;2022-10-22T16:31:25;11.13;;;8.90;;
8060;SDS011;4073;42.626;25.386;2022-10-22T16:33:50;10.73;;;8.50;;
8060;SDS011;4073;42.626;25.386;2022-10-22T16:36:17;12.07;;;8.53;;
8060;SDS011;4073;42.626;25.386;2022-10-22T16:38:45;12.73;;;8.53;;
8060;SDS011;4073;42.626;25.386;2022-10-22T16:41:12;13.87;;;9.13;;
8060;SDS011;4073;42.626;25.386;2022-10-22T16:43:43;13.37;;;8.33;;
8060;SDS011;4073;42.626;25.386;2022-10-22T16:46:12;14.93;;;10.30;;
8060;SDS011;4073;42.626;25.386;2022-10-22T16:48:39;12.77;;;9.90;;